createdAt,value
2019-06-26T00:00:08.739Z,31.50
2019-06-26T00:02:37.454Z,31.60
2019-06-26T00:05:07.130Z,31.60
2019-06-26T00:07:36.116Z,31.60
2019-06-26T00:10:06.065Z,31.60
2019-06-26T00:12:35.016Z,31.60
2019-06-26T00:15:05.024Z,31.60
2019-06-26T00:17:33.717Z,31.60
2019-06-26T00:20:02.652Z,31.60
2019-06-26T00:22:31.369Z,31.50
2019-06-26T00:25:00.055Z,31.50
2019-06-26T00:27:28.748Z,31.50
2019-06-26T00:29:57.438Z,31.50
2019-06-26T00:32:26.101Z,31.50
2019-06-26T00:34:54.825Z,31.40
2019-06-26T00:37:23.576Z,31.40
2019-06-26T00:39:52.556Z,31.40
2019-06-26T00:42:21.263Z,31.30
2019-06-26T00:44:49.957Z,31.20
2019-06-26T00:47:18.696Z,31.10
2019-06-26T00:49:47.381Z,31.10
2019-06-26T00:52:16.140Z,31.10
2019-06-26T00:54:44.843Z,31.10
2019-06-26T00:57:13.574Z,31.10
2019-06-26T00:59:42.278Z,31.10
2019-06-26T01:02:10.980Z,31.10
2019-06-26T01:04:47.234Z,31.10
2019-06-26T01:07:15.959Z,31.10
2019-06-26T01:09:44.739Z,31.00
2019-06-26T01:12:13.455Z,31.00
2019-06-26T01:14:42.138Z,31.00
2019-06-26T01:17:11.038Z,31.00
2019-06-26T01:19:39.712Z,31.00
2019-06-26T01:22:08.382Z,30.90
2019-06-26T01:24:37.355Z,30.90
2019-06-26T01:27:06.062Z,30.90
2019-06-26T01:29:34.750Z,30.80
2019-06-26T01:32:03.421Z,30.80
2019-06-26T01:34:32.091Z,30.80
2019-06-26T01:37:00.807Z,30.80
2019-06-26T01:39:29.579Z,30.70
2019-06-26T01:41:58.562Z,30.70
2019-06-26T01:44:27.243Z,30.70
2019-06-26T01:46:55.921Z,30.60
2019-06-26T01:49:24.693Z,30.60
2019-06-26T01:51:53.496Z,30.60
2019-06-26T01:54:41.479Z,30.60
2019-06-26T01:57:10.147Z,30.50
2019-06-26T01:59:38.920Z,30.40
2019-06-26T02:02:07.614Z,30.40
2019-06-26T02:04:36.278Z,30.30
2019-06-26T02:07:04.959Z,30.30
2019-06-26T02:09:33.644Z,30.20
2019-06-26T02:12:02.630Z,30.20
2019-06-26T02:14:32.013Z,30.10
2019-06-26T02:17:00.791Z,30.10
2019-06-26T02:19:29.578Z,30.10
2019-06-26T02:21:58.302Z,30.00
2019-06-26T02:24:27.066Z,30.00
2019-06-26T02:26:55.742Z,29.90
2019-06-26T02:29:24.451Z,29.90
2019-06-26T02:31:53.197Z,29.80
2019-06-26T02:34:41.208Z,29.80
2019-06-26T02:37:09.892Z,29.80
2019-06-26T02:39:38.559Z,29.80
2019-06-26T02:42:07.284Z,29.70
2019-06-26T02:44:51.979Z,29.70
2019-06-26T02:47:19.417Z,29.70
2019-06-26T02:49:36.976Z,29.60
2019-06-26T02:52:05.710Z,29.60
2019-06-26T02:54:34.449Z,29.50
2019-06-26T02:57:03.141Z,29.50
2019-06-26T02:59:31.854Z,29.50
2019-06-26T03:02:00.525Z,29.50
2019-06-26T03:04:29.252Z,29.40
2019-06-26T03:06:57.964Z,29.50
2019-06-26T03:09:26.720Z,29.40
2019-06-26T03:11:55.404Z,29.40
2019-06-26T03:14:24.107Z,29.40
2019-06-26T03:16:52.888Z,29.40
2019-06-26T03:19:21.572Z,29.30
2019-06-26T03:21:50.373Z,29.30
2019-06-26T03:24:19.102Z,29.30
2019-06-26T03:26:47.772Z,29.30
2019-06-26T03:29:16.498Z,29.30
2019-06-26T03:31:45.209Z,29.20
2019-06-26T03:34:13.969Z,29.20
2019-06-26T03:36:42.742Z,29.10
2019-06-26T03:39:11.498Z,29.10
2019-06-26T03:41:40.177Z,29.10
2019-06-26T03:44:09.636Z,29.10
2019-06-26T03:46:38.523Z,29.10
2019-06-26T03:49:07.220Z,29.00
2019-06-26T03:51:35.913Z,29.00
2019-06-26T03:54:04.616Z,29.00
2019-06-26T03:56:33.308Z,29.00
2019-06-26T03:59:02.098Z,28.90
2019-06-26T04:01:31.057Z,29.00
2019-06-26T04:03:59.761Z,28.90
2019-06-26T04:06:28.451Z,28.90
2019-06-26T04:08:57.158Z,29.00
2019-06-26T04:11:25.861Z,29.00
2019-06-26T04:13:54.574Z,29.00
2019-06-26T04:16:23.318Z,29.00
2019-06-26T04:18:52.035Z,29.00
2019-06-26T04:21:20.722Z,29.00
2019-06-26T04:23:49.388Z,29.00
2019-06-26T04:26:18.106Z,28.90
2019-06-26T04:28:46.788Z,29.00
2019-06-26T04:31:15.482Z,29.00
2019-06-26T04:33:44.209Z,29.00
2019-06-26T04:36:12.961Z,29.00
2019-06-26T04:38:41.710Z,28.90
2019-06-26T04:41:10.423Z,28.90
2019-06-26T04:43:39.114Z,29.00
2019-06-26T04:46:07.804Z,28.90
2019-06-26T04:48:36.507Z,28.90
2019-06-26T04:51:05.517Z,28.90
2019-06-26T04:53:34.209Z,28.90
2019-06-26T04:56:02.944Z,28.90
2019-06-26T04:58:31.946Z,28.90
2019-06-26T05:01:00.671Z,28.90
2019-06-26T05:03:29.446Z,28.90
2019-06-26T05:05:58.159Z,29.00
2019-06-26T05:08:26.868Z,29.00
2019-06-26T05:10:55.554Z,29.00
2019-06-26T05:13:24.273Z,29.00
2019-06-26T05:15:53.002Z,29.00
2019-06-26T05:18:44.288Z,29.00
2019-06-26T05:21:13.034Z,28.90
2019-06-26T05:23:41.777Z,28.90
2019-06-26T05:26:10.486Z,28.90
2019-06-26T05:28:39.154Z,28.80
2019-06-26T05:31:07.824Z,28.80
2019-06-26T05:33:36.593Z,28.90
2019-06-26T05:36:05.275Z,28.90
2019-06-26T05:38:34.010Z,28.80
2019-06-26T05:41:02.818Z,28.80
2019-06-26T05:43:31.830Z,28.80
2019-06-26T05:46:00.524Z,28.80
2019-06-26T05:48:29.214Z,28.90
2019-06-26T05:50:57.933Z,29.00
2019-06-26T05:53:26.617Z,29.00
2019-06-26T05:55:55.337Z,28.90
2019-06-26T05:58:24.002Z,28.80
2019-06-26T06:00:52.712Z,28.80
2019-06-26T06:03:21.451Z,28.80
2019-06-26T06:05:50.371Z,28.80
2019-06-26T06:08:19.388Z,28.90
2019-06-26T06:10:48.264Z,28.90
2019-06-26T06:13:16.995Z,28.90
2019-06-26T06:15:45.666Z,28.90
2019-06-26T06:18:14.378Z,29.00
2019-06-26T06:20:43.067Z,29.10
2019-06-26T06:23:11.782Z,29.20
2019-06-26T06:25:40.496Z,29.30
2019-06-26T06:28:09.189Z,29.40
2019-06-26T06:30:37.868Z,29.50
2019-06-26T06:33:06.568Z,29.50
2019-06-26T06:35:35.309Z,29.40
2019-06-26T06:38:04.025Z,29.40
2019-06-26T06:40:32.695Z,29.40
2019-06-26T06:43:01.446Z,29.50
2019-06-26T06:45:31.180Z,29.50
2019-06-26T06:47:59.883Z,29.40
2019-06-26T06:50:28.551Z,29.50
2019-06-26T06:52:57.558Z,29.50
2019-06-26T06:55:26.292Z,29.50
2019-06-26T06:57:54.982Z,29.50
2019-06-26T07:00:23.922Z,29.50
2019-06-26T07:02:52.697Z,29.50
2019-06-26T07:05:21.441Z,29.50
2019-06-26T07:07:50.101Z,29.50
2019-06-26T07:10:19.018Z,29.40
2019-06-26T07:12:47.790Z,29.40
2019-06-26T07:15:18.497Z,29.40
2019-06-26T07:17:47.195Z,29.50
2019-06-26T07:20:16.452Z,29.50
2019-06-26T07:22:45.154Z,29.60
2019-06-26T07:25:14.830Z,29.50
2019-06-26T07:27:43.747Z,29.50
2019-06-26T07:30:12.821Z,29.40
2019-06-26T07:32:41.516Z,29.40
2019-06-26T07:35:10.817Z,29.30
2019-06-26T07:37:39.704Z,29.40
2019-06-26T07:40:09.763Z,29.40
2019-06-26T07:42:39.746Z,29.50
2019-06-26T07:45:09.235Z,29.60
2019-06-26T07:47:43.463Z,29.80
2019-06-26T07:50:09.266Z,29.70
2019-06-26T07:52:38.055Z,29.70
2019-06-26T07:55:11.952Z,29.80
2019-06-26T07:57:38.959Z,30.00
2019-06-26T08:00:09.522Z,30.00
2019-06-26T08:02:39.373Z,30.10
2019-06-26T08:05:09.566Z,30.10
2019-06-26T08:07:38.317Z,30.20
2019-06-26T08:10:08.862Z,30.30
2019-06-26T08:12:37.584Z,30.30
2019-06-26T08:15:07.611Z,30.40
2019-06-26T08:17:36.287Z,30.50
2019-06-26T08:20:06.542Z,30.50
2019-06-26T08:22:35.467Z,30.50
2019-06-26T08:25:06.619Z,30.60
2019-06-26T08:27:36.559Z,30.70
2019-06-26T08:30:08.357Z,30.80
2019-06-26T08:32:37.173Z,30.90
2019-06-26T08:35:09.277Z,30.90
2019-06-26T08:37:37.963Z,31.00
2019-06-26T08:40:07.150Z,31.10
2019-06-26T08:42:36.759Z,31.20
2019-06-26T08:45:07.671Z,31.20
2019-06-26T08:47:38.052Z,31.20
2019-06-26T08:50:08.421Z,31.30
2019-06-26T08:52:37.546Z,31.30
2019-06-26T08:55:07.455Z,31.40
2019-06-26T08:57:36.156Z,31.30
2019-06-26T09:00:09.640Z,31.30
2019-06-26T09:02:38.412Z,31.30
2019-06-26T09:05:07.890Z,31.40
2019-06-26T09:07:36.628Z,31.50
2019-06-26T09:10:08.676Z,31.50
2019-06-26T09:12:37.380Z,31.60
2019-06-26T09:15:07.575Z,31.60
2019-06-26T09:17:36.641Z,31.70
2019-06-26T09:20:06.871Z,31.60
2019-06-26T09:22:37.263Z,31.60
2019-06-26T09:25:20.860Z,31.50
2019-06-26T09:27:39.887Z,31.50
2019-06-26T09:30:10.929Z,31.40
2019-06-26T09:32:41.475Z,31.50
2019-06-26T09:35:10.170Z,31.60
2019-06-26T09:37:38.870Z,31.50
2019-06-26T09:40:08.084Z,31.40
2019-06-26T09:42:36.938Z,31.50
2019-06-26T09:45:09.634Z,31.50
2019-06-26T09:47:38.487Z,31.60
2019-06-26T09:50:07.776Z,31.70
2019-06-26T09:52:36.664Z,31.80
2019-06-26T09:55:09.390Z,32.00
2019-06-26T09:57:38.675Z,32.10
2019-06-26T10:00:13.485Z,31.90
2019-06-26T10:02:42.396Z,31.90
2019-06-26T10:05:11.310Z,32.10
2019-06-26T10:07:39.999Z,32.10
2019-06-26T10:10:09.132Z,32.00
2019-06-26T10:12:37.805Z,31.90
2019-06-26T10:15:07.326Z,31.80
2019-06-26T10:17:36.014Z,31.70
2019-06-26T10:20:07.509Z,31.60
2019-06-26T10:22:36.255Z,31.50
2019-06-26T10:25:05.972Z,31.50
2019-06-26T10:27:34.834Z,31.70
2019-06-26T10:30:04.122Z,31.70
2019-06-26T10:32:32.896Z,31.70
2019-06-26T10:35:01.765Z,31.70
2019-06-26T10:37:30.448Z,31.80
2019-06-26T10:39:59.188Z,31.80
2019-06-26T10:42:27.910Z,31.90
2019-06-26T10:44:56.610Z,31.90
2019-06-26T10:47:25.368Z,32.00
2019-06-26T10:49:54.065Z,32.10
2019-06-26T10:52:22.719Z,32.10
2019-06-26T10:54:51.689Z,32.10
2019-06-26T10:57:20.504Z,32.10
2019-06-26T10:59:49.263Z,31.90
2019-06-26T11:02:18.048Z,31.90
2019-06-26T11:04:47.044Z,31.90
2019-06-26T11:07:15.807Z,31.90
2019-06-26T11:09:44.496Z,32.10
2019-06-26T11:12:13.264Z,32.10
2019-06-26T11:14:41.992Z,32.20
2019-06-26T11:17:10.672Z,32.20
2019-06-26T11:19:43.918Z,32.20
2019-06-26T11:22:09.776Z,32.20
2019-06-26T11:24:39.725Z,32.10
2019-06-26T11:27:09.586Z,32.20
2019-06-26T11:29:38.324Z,32.30
2019-06-26T11:32:09.417Z,32.40
2019-06-26T11:34:37.798Z,32.40
2019-06-26T11:37:06.539Z,32.50
2019-06-26T11:39:37.134Z,32.60
2019-06-26T11:42:05.985Z,32.60
2019-06-26T11:44:34.658Z,32.60
2019-06-26T11:47:03.392Z,32.60
2019-06-26T11:49:32.410Z,32.50
2019-06-26T11:52:01.323Z,32.50
2019-06-26T11:54:29.990Z,32.50
2019-06-26T11:56:58.723Z,32.60
2019-06-26T11:59:27.741Z,32.60
2019-06-26T12:01:56.475Z,32.60
2019-06-26T12:04:26.402Z,32.60
2019-06-26T12:06:55.184Z,32.70
2019-06-26T12:09:23.874Z,32.60
2019-06-26T12:11:52.560Z,32.60
2019-06-26T12:14:21.431Z,32.60
2019-06-26T12:16:50.417Z,32.60
2019-06-26T12:19:23.311Z,32.60
2019-06-26T12:21:49.896Z,32.60
2019-06-26T12:24:18.656Z,32.60
2019-06-26T12:26:47.335Z,32.60
2019-06-26T12:29:16.124Z,32.50
2019-06-26T12:31:45.029Z,32.50
2019-06-26T12:34:13.710Z,32.50
2019-06-26T12:36:42.411Z,32.50
2019-06-26T12:39:15.899Z,32.60
2019-06-26T12:41:44.601Z,32.60
2019-06-26T12:44:13.474Z,32.60
2019-06-26T12:46:42.145Z,32.60
2019-06-26T12:49:10.850Z,32.60
2019-06-26T12:51:39.791Z,32.70
2019-06-26T12:54:08.559Z,32.70
2019-06-26T12:56:37.319Z,32.80
2019-06-26T12:59:06.099Z,32.80
2019-06-26T13:01:34.921Z,32.70
2019-06-26T13:04:03.626Z,32.60
2019-06-26T13:06:32.296Z,32.70
2019-06-26T13:09:01.070Z,32.70
2019-06-26T13:11:29.982Z,32.80
2019-06-26T13:14:03.031Z,32.80
2019-06-26T13:16:29.103Z,32.80
2019-06-26T13:18:57.839Z,32.80
2019-06-26T13:21:26.614Z,32.80
2019-06-26T13:23:55.362Z,32.80
2019-06-26T13:26:24.131Z,32.80
2019-06-26T13:28:52.866Z,32.80
2019-06-26T13:31:21.591Z,32.80
2019-06-26T13:33:50.254Z,32.80
2019-06-26T13:36:18.985Z,32.80
2019-06-26T13:38:47.868Z,32.90
2019-06-26T13:41:16.611Z,32.80
2019-06-26T13:43:45.381Z,32.80
2019-06-26T13:46:14.110Z,32.90
2019-06-26T13:48:42.939Z,32.80
2019-06-26T13:51:11.929Z,32.80
2019-06-26T13:53:40.621Z,32.80
2019-06-26T13:56:09.334Z,32.70
2019-06-26T13:58:38.046Z,32.70
2019-06-26T14:01:06.768Z,32.70
2019-06-26T14:03:35.463Z,32.80
2019-06-26T14:06:04.160Z,32.80
2019-06-26T14:08:33.069Z,32.80
2019-06-26T14:11:02.112Z,32.90
2019-06-26T14:13:30.899Z,32.80
2019-06-26T14:15:59.638Z,32.90
2019-06-26T14:18:30.366Z,32.90
2019-06-26T14:20:59.595Z,33.00
2019-06-26T14:23:37.824Z,33.00
2019-06-26T14:26:09.703Z,32.90
2019-06-26T14:28:39.805Z,32.80
2019-06-26T14:31:08.610Z,32.70
2019-06-26T14:33:38.907Z,32.60
2019-06-26T14:36:07.827Z,32.60
2019-06-26T14:38:36.633Z,32.60
2019-06-26T14:41:05.369Z,32.50
2019-06-26T14:43:34.085Z,32.50
2019-06-26T14:46:22.037Z,32.60
2019-06-26T14:48:50.733Z,32.60
2019-06-26T14:51:19.411Z,32.60
2019-06-26T14:53:48.127Z,32.60
2019-06-26T14:56:16.876Z,32.60
2019-06-26T14:58:47.064Z,32.80
2019-06-26T15:01:15.774Z,32.80
2019-06-26T15:03:44.821Z,33.00
2019-06-26T15:06:17.021Z,32.90
2019-06-26T15:08:44.319Z,32.90
2019-06-26T15:11:15.504Z,32.80
2019-06-26T15:13:43.928Z,32.90
2019-06-26T15:16:12.651Z,33.00
2019-06-26T15:18:41.400Z,33.10
2019-06-26T15:21:10.127Z,33.30
2019-06-26T15:23:38.928Z,33.50
2019-06-26T15:26:07.930Z,33.50
2019-06-26T15:28:36.603Z,33.30
2019-06-26T15:31:05.495Z,33.20
2019-06-26T15:33:36.575Z,33.20
2019-06-26T15:36:04.816Z,33.20
2019-06-26T15:38:33.530Z,33.30
2019-06-26T15:41:02.202Z,33.40
2019-06-26T15:43:30.989Z,33.50
2019-06-26T15:45:59.764Z,33.50
2019-06-26T15:48:28.456Z,33.50
2019-06-26T15:50:57.246Z,33.50
2019-06-26T15:53:26.192Z,33.50
2019-06-26T15:55:54.878Z,33.50
2019-06-26T15:58:23.686Z,33.40
2019-06-26T16:00:52.375Z,33.30
2019-06-26T16:03:30.017Z,33.40
2019-06-26T16:05:58.755Z,33.20
2019-06-26T16:08:27.550Z,33.20
2019-06-26T16:10:56.227Z,33.10
2019-06-26T16:13:24.936Z,33.20
2019-06-26T16:15:53.640Z,33.30
2019-06-26T16:18:23.966Z,33.20
2019-06-26T16:20:52.637Z,33.10
2019-06-26T16:23:21.360Z,33.10
2019-06-26T16:25:50.184Z,33.10
2019-06-26T16:28:18.896Z,33.00
2019-06-26T16:30:47.668Z,33.00
2019-06-26T16:33:16.354Z,32.90
2019-06-26T16:35:45.233Z,32.90
2019-06-26T16:38:14.061Z,32.80
2019-06-26T16:40:42.732Z,32.70
2019-06-26T16:43:11.426Z,32.70
2019-06-26T16:45:40.106Z,32.60
2019-06-26T16:48:08.884Z,32.50
2019-06-26T16:50:37.572Z,32.60
2019-06-26T16:53:06.255Z,32.60
2019-06-26T16:55:34.929Z,32.50
2019-06-26T16:58:03.639Z,32.60
2019-06-26T17:00:32.608Z,32.60
2019-06-26T17:03:01.276Z,32.60
2019-06-26T17:05:29.959Z,32.60
2019-06-26T17:07:58.678Z,32.40
2019-06-26T17:10:27.362Z,32.30
2019-06-26T17:12:56.061Z,32.30
2019-06-26T17:15:24.727Z,32.20
2019-06-26T17:17:53.608Z,32.10
2019-06-26T17:20:22.486Z,32.00
2019-06-26T17:23:04.413Z,32.00
2019-06-26T17:25:21.709Z,31.80
2019-06-26T17:27:50.454Z,31.80
2019-06-26T17:30:19.465Z,31.80
2019-06-26T17:32:49.484Z,31.80
2019-06-26T17:35:18.211Z,31.70
2019-06-26T17:37:46.903Z,31.60
2019-06-26T17:40:16.373Z,31.50
2019-06-26T17:42:45.866Z,31.40
2019-06-26T17:45:14.720Z,31.30
2019-06-26T17:47:43.722Z,31.30
2019-06-26T17:50:12.690Z,31.30
2019-06-26T17:52:41.418Z,31.30
2019-06-26T17:55:10.803Z,31.30
2019-06-26T17:57:39.796Z,31.20
2019-06-26T18:00:10.754Z,31.00
2019-06-26T18:02:39.619Z,30.90
2019-06-26T18:05:09.581Z,30.90
2019-06-26T18:07:38.295Z,30.70
2019-06-26T18:10:07.542Z,30.60
2019-06-26T18:12:36.276Z,30.50
2019-06-26T18:15:07.049Z,30.50
2019-06-26T18:17:35.992Z,30.40
2019-06-26T18:20:06.621Z,30.40
2019-06-26T18:22:35.878Z,30.30
2019-06-26T18:25:08.460Z,30.20
2019-06-26T18:27:37.205Z,30.10
2019-06-26T18:30:10.754Z,30.10
2019-06-26T18:32:39.570Z,29.90
2019-06-26T18:35:08.822Z,29.90
2019-06-26T18:37:37.548Z,29.80
2019-06-26T18:40:08.005Z,29.80
2019-06-26T18:42:37.254Z,29.70
2019-06-26T18:45:06.551Z,29.60
2019-06-26T18:47:35.230Z,29.50
2019-06-26T18:50:06.242Z,29.40
2019-06-26T18:52:34.960Z,29.40
2019-06-26T18:55:05.485Z,29.30
2019-06-26T18:57:34.171Z,29.10
2019-06-26T19:00:03.638Z,29.10
2019-06-26T19:02:32.634Z,29.00
2019-06-26T19:05:20.563Z,29.10
2019-06-26T19:07:49.892Z,29.10
2019-06-26T19:10:21.971Z,29.00
2019-06-26T19:12:53.651Z,28.90
2019-06-26T19:15:29.647Z,28.90
2019-06-26T19:17:59.009Z,28.90
2019-06-26T19:20:28.694Z,28.90
2019-06-26T19:22:57.645Z,29.00
2019-06-26T19:28:04.864Z,29.10
2019-06-26T19:30:34.231Z,29.10
2019-06-26T19:33:04.867Z,29.00
2019-06-26T19:35:34.784Z,28.90
2019-06-26T19:38:07.225Z,28.70
2019-06-26T19:40:36.831Z,28.60
2019-06-26T19:43:05.973Z,28.60
2019-06-26T19:45:34.672Z,28.50
2019-06-26T19:48:03.520Z,28.50
2019-06-26T19:50:32.194Z,28.40
2019-06-26T19:53:03.077Z,28.50
2019-06-26T19:55:31.804Z,28.50
2019-06-26T19:58:00.487Z,28.40
2019-06-26T20:00:29.829Z,28.40
2019-06-26T20:02:58.552Z,28.40
2019-06-26T20:05:28.005Z,28.30
2019-06-26T20:07:56.710Z,28.20
2019-06-26T20:10:25.621Z,28.00
2019-06-26T20:12:54.317Z,28.10
2019-06-26T20:15:23.079Z,28.00
2019-06-26T20:17:51.915Z,27.90
2019-06-26T20:20:20.697Z,27.80
2019-06-26T20:22:49.389Z,27.80
2019-06-26T20:25:18.993Z,27.80
2019-06-26T20:27:47.968Z,27.80
2019-06-26T20:30:18.135Z,27.60
2019-06-26T20:32:48.455Z,27.50
2019-06-26T20:35:17.414Z,27.40
2019-06-26T20:37:46.176Z,27.40
2019-06-26T20:40:15.185Z,27.40
2019-06-26T20:42:43.898Z,27.40
2019-06-26T20:45:13.545Z,27.40
2019-06-26T20:47:42.272Z,27.40
2019-06-26T20:50:11.331Z,27.40
2019-06-26T20:52:40.053Z,27.40
2019-06-26T20:55:08.724Z,27.30
2019-06-26T20:57:37.425Z,27.20
2019-06-26T21:00:08.918Z,27.20
2019-06-26T21:02:37.856Z,27.10
2019-06-26T21:05:07.471Z,27.10
2019-06-26T21:07:36.247Z,27.10
2019-06-26T21:10:05.941Z,27.00
2019-06-26T21:12:34.635Z,26.90
2019-06-26T21:15:03.718Z,26.80
2019-06-26T21:17:32.413Z,26.70
2019-06-26T21:20:01.187Z,26.60
2019-06-26T21:22:29.907Z,26.50
2019-06-26T21:24:58.618Z,26.50
2019-06-26T21:27:27.382Z,26.40
2019-06-26T21:29:56.065Z,26.40
2019-06-26T21:32:24.952Z,26.30
2019-06-26T21:34:53.631Z,26.30
2019-06-26T21:37:22.331Z,26.30
2019-06-26T21:39:51.222Z,26.20
2019-06-26T21:42:20.231Z,26.20
2019-06-26T21:44:48.928Z,26.10
2019-06-26T21:47:17.807Z,26.10
2019-06-26T21:49:46.505Z,26.00
2019-06-26T21:52:15.257Z,26.00
2019-06-26T21:54:44.011Z,25.90
2019-06-26T21:57:12.686Z,25.90
2019-06-26T21:59:41.512Z,25.90
2019-06-26T22:02:10.186Z,26.00
2019-06-26T22:04:38.927Z,25.90
2019-06-26T22:07:07.637Z,25.80
2019-06-26T22:09:36.355Z,25.70
2019-06-26T22:12:05.031Z,25.70
2019-06-26T22:14:33.746Z,25.70
2019-06-26T22:17:02.447Z,25.70
2019-06-26T22:19:31.423Z,25.80
2019-06-26T22:22:00.116Z,25.80
2019-06-26T22:24:29.022Z,25.80
2019-06-26T22:26:57.682Z,25.80
2019-06-26T22:29:26.354Z,25.60
2019-06-26T22:31:55.062Z,25.60
2019-06-26T22:34:23.870Z,25.60
2019-06-26T22:36:52.578Z,25.50
2019-06-26T22:39:21.400Z,25.40
2019-06-26T22:41:50.116Z,25.30
2019-06-26T22:44:18.841Z,25.20
2019-06-26T22:46:47.534Z,25.20
2019-06-26T22:49:16.339Z,25.20
2019-06-26T22:51:45.053Z,25.10
2019-06-26T22:54:14.075Z,25.00
2019-06-26T22:56:42.962Z,24.90
2019-06-26T22:59:11.627Z,24.70
2019-06-26T23:01:40.446Z,24.60
2019-06-26T23:04:09.536Z,24.40
2019-06-26T23:06:38.295Z,24.20
2019-06-26T23:09:07.622Z,24.20
2019-06-26T23:11:36.320Z,24.20
2019-06-26T23:14:05.035Z,24.20
2019-06-26T23:16:33.741Z,24.10
2019-06-26T23:19:02.471Z,23.80
2019-06-26T23:21:31.163Z,23.80
2019-06-26T23:23:59.883Z,23.70
2019-06-26T23:26:28.560Z,23.60
2019-06-26T23:28:57.274Z,23.50
2019-06-26T23:31:26.003Z,23.50
2019-06-26T23:33:54.696Z,23.50
2019-06-26T23:36:23.579Z,23.30
2019-06-26T23:38:52.289Z,23.30
2019-06-26T23:41:20.964Z,23.20
2019-06-26T23:43:49.677Z,23.10
2019-06-26T23:46:18.519Z,23.00
2019-06-26T23:48:47.469Z,22.90
2019-06-26T23:51:16.273Z,22.90
2019-06-26T23:53:45.074Z,22.70
2019-06-26T23:56:13.837Z,22.60
2019-06-26T23:58:42.569Z,22.70
